createdAt,value
2022-11-14T00:02:06.211Z,100532.25
2022-11-14T00:04:38.334Z,100522.38
2022-11-14T00:07:07.821Z,100523.88
2022-11-14T00:09:38.672Z,100512.84
2022-11-14T00:12:08.688Z,100505.72
2022-11-14T00:14:38.291Z,100516.78
2022-11-14T00:17:07.997Z,100515.03
2022-11-14T00:19:40.033Z,100514.66
2022-11-14T00:22:09.547Z,100515.03
2022-11-14T00:24:39.041Z,100522.09
2022-11-14T00:27:08.533Z,100529.69
2022-11-14T00:29:38.653Z,100526.41
2022-11-14T00:32:08.707Z,100520.56
2022-11-14T00:34:40.805Z,100520.69
2022-11-14T00:37:10.251Z,100518.28
2022-11-14T00:39:39.705Z,100509.59
2022-11-14T00:42:09.285Z,100507.47
2022-11-14T00:44:38.773Z,100491.66
2022-11-14T00:47:08.385Z,100494.78
2022-11-14T00:49:40.484Z,100491.31
2022-11-14T00:52:09.984Z,100497.88
2022-11-14T00:54:39.430Z,100492.91
2022-11-14T00:57:09.064Z,100490.59
2022-11-14T00:59:38.525Z,100499.50
2022-11-14T01:02:08.029Z,100501.50
2022-11-14T01:04:40.125Z,100490.09
2022-11-14T01:07:09.641Z,100496.16
2022-11-14T01:09:39.274Z,100492.56
2022-11-14T01:12:08.801Z,100493.06
2022-11-14T01:14:54.785Z,100489.22
2022-11-14T01:17:24.408Z,100490.97
2022-11-14T01:19:56.491Z,100487.63
2022-11-14T01:22:25.987Z,100484.47
2022-11-14T01:24:58.362Z,100485.94
2022-11-14T01:27:27.950Z,100486.59
2022-11-14T01:29:57.490Z,100477.81
2022-11-14T01:32:26.969Z,100478.75
2022-11-14T01:34:59.065Z,100489.81
2022-11-14T01:37:28.562Z,100485.00
2022-11-14T01:39:58.093Z,100481.91
2022-11-14T01:42:27.773Z,100488.97
2022-11-14T01:44:57.272Z,100480.94
2022-11-14T01:47:28.522Z,100474.19
2022-11-14T01:50:01.616Z,100473.94
2022-11-14T01:52:31.909Z,100468.59
2022-11-14T01:55:03.054Z,100462.22
2022-11-14T01:57:32.724Z,100463.38
2022-11-14T02:00:04.395Z,100458.84
2022-11-14T02:02:33.893Z,100463.31
2022-11-14T02:05:08.256Z,100455.59
2022-11-14T02:07:40.355Z,100451.78
2022-11-14T02:10:11.881Z,100459.50
2022-11-14T02:12:41.356Z,100454.19
2022-11-14T02:15:11.921Z,100448.34
2022-11-14T02:17:41.413Z,100457.34
2022-11-14T02:20:24.299Z,100445.97
2022-11-14T02:22:53.744Z,100449.06
2022-11-14T02:25:23.273Z,100451.97
2022-11-14T02:27:52.825Z,100450.94
2022-11-14T02:30:23.841Z,100452.28
2022-11-14T02:35:45.382Z,100444.66
2022-11-14T02:38:14.883Z,100441.03
2022-11-14T02:40:44.350Z,100433.19
2022-11-14T02:43:13.805Z,100434.34
2022-11-14T02:45:43.287Z,100432.72
2022-11-14T02:48:12.775Z,100428.47
2022-11-14T02:50:44.834Z,100429.28
2022-11-14T02:53:14.309Z,100425.66
2022-11-14T02:55:43.829Z,100421.41
2022-11-14T02:58:13.304Z,100420.41
2022-11-14T03:01:05.994Z,100419.41
2022-11-14T03:03:32.299Z,100414.38
2022-11-14T03:06:05.060Z,100408.47
2022-11-14T03:08:34.577Z,100402.75
2022-11-14T03:11:06.928Z,100407.31
2022-11-14T03:13:36.497Z,100401.59
2022-11-14T03:16:10.051Z,100400.88
2022-11-14T03:18:39.536Z,100392.31
2022-11-14T03:21:11.968Z,100393.88
2022-11-14T03:23:41.475Z,100393.41
2022-11-14T03:26:11.840Z,100383.53
2022-11-14T03:28:41.815Z,100379.00
2022-11-14T03:31:12.475Z,100372.19
2022-11-14T03:33:41.969Z,100372.06
2022-11-14T03:36:14.072Z,100365.81
2022-11-14T03:38:43.666Z,100369.44
2022-11-14T03:41:13.549Z,100374.22
2022-11-14T03:43:42.991Z,100362.13
2022-11-14T03:46:12.446Z,100365.47
2022-11-14T03:48:42.213Z,100367.41
2022-11-14T03:51:14.300Z,100369.03
2022-11-14T03:53:44.328Z,100373.78
2022-11-14T03:56:13.902Z,100373.06
2022-11-14T03:58:46.610Z,100365.44
2022-11-14T04:01:16.850Z,100374.22
2022-11-14T04:03:46.416Z,100365.66
2022-11-14T04:06:18.963Z,100368.28
2022-11-14T04:08:51.942Z,100368.78
2022-11-14T04:11:22.059Z,100367.66
2022-11-14T04:13:51.542Z,100366.88
2022-11-14T04:16:21.029Z,100367.59
2022-11-14T04:18:50.529Z,100363.19
2022-11-14T04:21:22.634Z,100363.25
2022-11-14T04:23:52.382Z,100366.38
2022-11-14T04:26:21.925Z,100364.88
2022-11-14T04:28:51.433Z,100371.50
2022-11-14T04:31:20.899Z,100372.13
2022-11-14T04:33:50.409Z,100365.81
2022-11-14T04:36:22.485Z,100366.31
2022-11-14T04:38:51.971Z,100365.34
2022-11-14T04:41:21.449Z,100363.84
2022-11-14T04:43:51.218Z,100363.28
2022-11-14T04:46:20.743Z,100355.72
2022-11-14T04:48:50.248Z,100357.53
2022-11-14T04:51:22.319Z,100348.94
2022-11-14T04:53:51.844Z,100347.59
2022-11-14T04:56:23.227Z,100350.56
2022-11-14T04:58:52.753Z,100342.75
2022-11-14T05:01:22.300Z,100337.69
2022-11-14T05:03:51.857Z,100340.59
2022-11-14T05:06:23.946Z,100342.88
2022-11-14T05:08:53.417Z,100344.94
2022-11-14T05:11:27.958Z,100343.34
2022-11-14T05:13:58.623Z,100343.03
2022-11-14T05:16:28.125Z,100333.69
2022-11-14T05:18:57.632Z,100338.97
2022-11-14T05:21:29.691Z,100331.28
2022-11-14T05:23:59.173Z,100331.16
2022-11-14T05:26:28.660Z,100335.53
2022-11-14T05:28:58.162Z,100326.16
2022-11-14T05:31:27.676Z,100335.34
2022-11-14T05:33:57.161Z,100324.66
2022-11-14T05:36:29.224Z,100322.31
2022-11-14T05:38:58.708Z,100319.69
2022-11-14T05:41:28.211Z,100313.59
2022-11-14T05:43:57.725Z,100309.00
2022-11-14T05:46:27.256Z,100305.72
2022-11-14T05:48:57.002Z,100303.13
2022-11-14T05:51:29.080Z,100298.41
2022-11-14T05:53:58.567Z,100302.84
2022-11-14T05:56:28.046Z,100310.47
2022-11-14T05:58:57.551Z,100305.31
2022-11-14T06:01:27.921Z,100302.75
2022-11-14T06:03:57.423Z,100301.78
2022-11-14T06:06:29.493Z,100309.50
2022-11-14T06:08:58.965Z,100312.84
2022-11-14T06:11:28.450Z,100309.69
2022-11-14T06:13:57.930Z,100313.50
2022-11-14T06:16:27.412Z,100305.59
2022-11-14T06:18:57.252Z,100312.84
2022-11-14T06:21:29.323Z,100305.00
2022-11-14T06:23:58.838Z,100315.22
2022-11-14T06:26:30.272Z,100322.78
2022-11-14T06:29:00.261Z,100319.03
2022-11-14T06:31:29.940Z,100326.00
2022-11-14T06:33:59.553Z,100329.16
2022-11-14T06:36:32.343Z,100324.19
2022-11-14T06:39:01.890Z,100315.03
2022-11-14T06:41:31.371Z,100314.31
2022-11-14T06:44:00.868Z,100312.69
2022-11-14T06:46:30.365Z,100322.91
2022-11-14T06:48:59.855Z,100317.66
2022-11-14T06:51:31.927Z,100319.09
2022-11-14T06:54:01.461Z,100315.59
2022-11-14T06:56:31.031Z,100317.69
2022-11-14T06:59:00.532Z,100303.66
2022-11-14T07:01:30.032Z,100300.69
2022-11-14T07:04:00.703Z,100298.25
2022-11-14T07:06:33.312Z,100296.03
2022-11-14T07:09:02.780Z,100302.78
2022-11-14T07:11:33.215Z,100300.63
2022-11-14T07:14:03.142Z,100286.31
2022-11-14T07:16:34.972Z,100284.63
2022-11-14T07:19:05.033Z,100275.81
2022-11-14T07:21:37.319Z,100273.47
2022-11-14T07:24:07.337Z,100286.59
2022-11-14T07:26:36.913Z,100295.66
2022-11-14T07:29:06.379Z,100296.06
2022-11-14T07:31:35.905Z,100305.22
2022-11-14T07:34:06.103Z,100306.38
2022-11-14T07:36:38.179Z,100308.59
2022-11-14T07:39:07.640Z,100302.94
2022-11-14T07:41:37.106Z,100299.25
2022-11-14T07:44:07.102Z,100304.59
2022-11-14T07:46:36.637Z,100314.69
2022-11-14T07:49:06.184Z,100306.19
2022-11-14T07:51:38.294Z,100316.09
2022-11-14T07:54:07.887Z,100309.59
2022-11-14T07:56:37.372Z,100304.34
2022-11-14T07:59:06.930Z,100322.81
2022-11-14T08:01:36.452Z,100320.91
2022-11-14T08:04:06.025Z,100319.38
2022-11-14T08:06:38.097Z,100319.09
2022-11-14T08:09:07.567Z,100316.44
2022-11-14T08:11:52.131Z,100313.06
2022-11-14T08:14:21.637Z,100313.91
2022-11-14T08:16:51.149Z,100322.25
2022-11-14T08:19:20.921Z,100327.06
2022-11-14T08:21:52.990Z,100334.47
2022-11-14T08:24:22.522Z,100327.50
2022-11-14T08:26:51.991Z,100322.78
2022-11-14T08:29:21.507Z,100320.59
2022-11-14T08:31:54.486Z,100310.28
2022-11-14T08:34:29.197Z,100313.56
2022-11-14T08:37:01.226Z,100313.75
2022-11-14T08:39:30.748Z,100317.84
2022-11-14T08:42:00.243Z,100322.31
2022-11-14T08:44:29.713Z,100332.44
2022-11-14T08:47:00.371Z,100330.72
2022-11-14T08:49:29.931Z,100341.91
2022-11-14T08:52:01.996Z,100329.44
2022-11-14T08:54:31.896Z,100345.03
2022-11-14T08:57:01.373Z,100343.59
2022-11-14T08:59:30.856Z,100336.22
2022-11-14T09:02:00.401Z,100341.13
2022-11-14T09:04:29.892Z,100336.34
2022-11-14T09:07:02.037Z,100328.63
2022-11-14T09:09:31.536Z,100326.22
2022-11-14T09:12:00.998Z,100334.69
2022-11-14T09:14:30.473Z,100335.44
2022-11-14T09:17:05.539Z,100333.47
2022-11-14T09:19:35.504Z,100338.41
2022-11-14T09:22:07.558Z,100331.97
2022-11-14T09:24:37.076Z,100334.53
2022-11-14T09:27:06.641Z,100329.88
2022-11-14T09:29:36.214Z,100329.19
2022-11-14T09:32:05.837Z,100333.41
2022-11-14T09:34:37.212Z,100326.97
2022-11-14T09:37:09.276Z,100343.09
2022-11-14T09:39:40.725Z,100337.94
2022-11-14T09:42:18.764Z,100334.22
2022-11-14T09:44:57.698Z,100343.03
2022-11-14T09:47:28.743Z,100356.84
2022-11-14T09:49:59.355Z,100342.28
2022-11-14T09:52:36.477Z,100342.94
2022-11-14T09:55:11.845Z,100343.75
2022-11-14T09:57:41.531Z,100346.69
2022-11-14T10:00:18.881Z,100348.50
2022-11-14T10:02:58.418Z,100348.00
2022-11-14T10:05:39.077Z,100348.81
2022-11-14T10:08:27.672Z,100331.06
2022-11-14T10:10:57.723Z,100329.41
2022-11-14T10:13:33.982Z,100320.09
2022-11-14T10:16:06.050Z,100311.56
2022-11-14T10:18:42.212Z,100309.50
2022-11-14T10:21:19.391Z,100303.63
2022-11-14T10:23:54.908Z,100314.31
2022-11-14T10:26:30.144Z,100314.78
2022-11-14T10:29:14.855Z,100306.41
2022-11-14T10:31:48.262Z,100304.53
2022-11-14T10:34:20.653Z,100294.06
2022-11-14T10:36:59.044Z,100289.31
2022-11-14T10:39:33.489Z,100273.66
2022-11-14T10:42:07.847Z,100280.38
2022-11-14T10:44:39.762Z,100280.88
2022-11-14T10:47:10.133Z,100272.72
2022-11-14T10:49:39.851Z,100274.56
2022-11-14T10:52:10.357Z,100273.88
2022-11-14T10:54:43.893Z,100281.59
2022-11-14T10:57:20.331Z,100271.88
2022-11-14T10:59:50.021Z,100270.19
2022-11-14T11:02:19.895Z,100260.22
2022-11-14T11:04:49.484Z,100249.97
2022-11-14T11:07:38.826Z,100237.81
2022-11-14T11:10:34.668Z,100247.28
2022-11-14T11:13:06.940Z,100252.81
2022-11-14T11:15:42.743Z,100253.97
2022-11-14T11:18:29.745Z,100236.69
2022-11-14T11:21:10.635Z,100223.22
2022-11-14T11:23:53.237Z,100223.56
2022-11-14T11:26:26.415Z,100229.59
2022-11-14T11:29:10.513Z,100226.84
2022-11-14T11:31:52.901Z,100230.66
2022-11-14T11:34:25.540Z,100233.13
2022-11-14T11:36:56.990Z,100218.66
2022-11-14T11:39:28.184Z,100219.94
2022-11-14T11:42:09.829Z,100222.19
2022-11-14T11:44:42.784Z,100220.56
2022-11-14T11:47:13.914Z,100219.63
2022-11-14T11:49:47.410Z,100215.00
2022-11-14T11:52:22.774Z,100212.63
2022-11-14T11:54:56.320Z,100216.31
2022-11-14T11:57:32.279Z,100207.06
2022-11-14T12:00:06.590Z,100217.91
2022-11-14T12:02:36.152Z,100208.38
2022-11-14T12:05:05.944Z,100198.97
2022-11-14T12:07:39.990Z,100205.41
2022-11-14T12:10:14.552Z,100191.72
2022-11-14T12:13:02.627Z,100193.44
2022-11-14T12:15:34.789Z,100196.53
2022-11-14T12:18:38.163Z,100187.50
2022-11-14T12:21:19.693Z,100187.25
2022-11-14T12:24:10.196Z,100188.34
2022-11-14T12:26:47.982Z,100178.34
2022-11-14T12:29:28.416Z,100176.13
2022-11-14T12:31:59.895Z,100180.09
2022-11-14T12:34:30.268Z,100163.06
2022-11-14T12:36:59.783Z,100162.22
2022-11-14T12:39:30.132Z,100166.03
2022-11-14T12:42:05.462Z,100168.47
2022-11-14T12:44:39.234Z,100173.19
2022-11-14T12:47:19.721Z,100170.56
2022-11-14T12:50:09.004Z,100155.56
2022-11-14T12:52:52.952Z,100151.94
2022-11-14T12:56:09.917Z,100148.66
2022-11-14T12:58:51.348Z,100144.09
2022-11-14T13:01:35.489Z,100140.34
2022-11-14T13:04:12.214Z,100143.84
2022-11-14T13:06:46.070Z,100139.00
2022-11-14T13:09:36.548Z,100140.09
2022-11-14T13:12:42.837Z,100128.75
2022-11-14T13:15:37.369Z,100122.03
2022-11-14T13:18:28.025Z,100117.63
2022-11-14T13:21:16.728Z,100118.50
2022-11-14T13:23:59.217Z,100121.38
2022-11-14T13:26:44.434Z,100109.59
2022-11-14T13:30:02.708Z,100114.47
2022-11-14T13:32:58.987Z,100124.31
2022-11-14T13:35:46.848Z,100119.66
2022-11-14T13:38:41.661Z,100118.50
2022-11-14T13:41:37.234Z,100112.69
2022-11-14T13:44:53.308Z,100111.38
2022-11-14T13:47:52.458Z,100110.97
2022-11-14T13:50:22.347Z,100110.59
2022-11-14T13:52:54.446Z,100106.69
2022-11-14T13:55:24.521Z,100103.34
2022-11-14T13:58:02.709Z,100112.47
2022-11-14T14:00:32.355Z,100106.91
2022-11-14T14:03:18.122Z,100113.00
2022-11-14T14:06:06.393Z,100109.84
2022-11-14T14:08:49.930Z,100104.16
2022-11-14T14:11:49.181Z,100088.38
2022-11-14T14:14:28.996Z,100100.03
2022-11-14T14:16:59.898Z,100096.94
2022-11-14T14:19:37.689Z,100094.69
2022-11-14T14:22:09.709Z,100085.34
2022-11-14T14:24:49.879Z,100079.66
2022-11-14T14:27:22.191Z,100091.66
2022-11-14T14:29:56.193Z,100093.69
2022-11-14T14:32:26.375Z,100078.47
2022-11-14T14:34:58.568Z,100079.91
2022-11-14T14:37:28.866Z,100076.03
2022-11-14T14:40:01.608Z,100069.94
2022-11-14T14:42:35.139Z,100068.94
2022-11-14T14:45:04.852Z,100064.66
2022-11-14T14:47:37.569Z,100066.28
2022-11-14T14:50:09.440Z,100067.50
2022-11-14T14:52:39.714Z,100060.78
2022-11-14T14:55:24.040Z,100072.41
2022-11-14T14:57:53.514Z,100077.06
2022-11-14T15:00:26.101Z,100074.25
2022-11-14T15:02:56.134Z,100070.56
2022-11-14T15:05:26.335Z,100071.97
2022-11-14T15:07:57.665Z,100063.06
2022-11-14T15:10:31.874Z,100068.31
2022-11-14T15:13:01.400Z,100070.38
2022-11-14T15:15:31.157Z,100070.34
2022-11-14T15:18:09.798Z,100066.09
2022-11-14T15:20:39.282Z,100052.03
2022-11-14T15:23:09.517Z,100066.47
2022-11-14T15:25:41.667Z,100064.63
2022-11-14T15:28:18.765Z,100051.41
2022-11-14T15:30:59.036Z,100055.09
2022-11-14T15:33:32.093Z,100059.78
2022-11-14T15:36:09.190Z,100050.97
2022-11-14T15:38:45.895Z,100050.38
2022-11-14T15:41:24.790Z,100061.56
2022-11-14T15:43:55.323Z,100066.84
2022-11-14T15:46:42.394Z,100066.44
2022-11-14T15:49:13.240Z,100064.00
2022-11-14T15:51:44.713Z,100061.16
2022-11-14T15:54:30.934Z,100062.38
2022-11-14T15:57:04.292Z,100071.16
2022-11-14T15:59:35.110Z,100071.16
2022-11-14T16:02:07.117Z,100064.25
2022-11-14T16:04:37.157Z,100077.06
2022-11-14T16:07:06.746Z,100070.56
2022-11-14T16:09:36.223Z,100080.25
2022-11-14T16:12:08.622Z,100084.72
2022-11-14T16:14:38.161Z,100075.16
2022-11-14T16:17:07.665Z,100084.53
2022-11-14T16:19:37.149Z,100089.22
2022-11-14T16:22:06.605Z,100081.28
2022-11-14T16:24:36.117Z,100083.09
2022-11-14T16:27:08.217Z,100086.38
2022-11-14T16:29:37.717Z,100083.09
2022-11-14T16:32:07.421Z,100078.66
2022-11-14T16:34:36.875Z,100083.34
2022-11-14T16:37:06.358Z,100077.84
2022-11-14T16:39:35.856Z,100079.28
2022-11-14T16:42:08.492Z,100083.56
2022-11-14T16:44:42.724Z,100086.00
2022-11-14T16:47:15.429Z,100092.50
2022-11-14T16:49:44.907Z,100096.38
2022-11-14T16:52:16.544Z,100095.34
2022-11-14T16:54:46.377Z,100094.16
2022-11-14T16:57:18.436Z,100103.69
2022-11-14T16:59:48.017Z,100102.66
2022-11-14T17:02:18.338Z,100100.19
2022-11-14T17:04:47.926Z,100105.28
2022-11-14T17:07:21.701Z,100110.19
2022-11-14T17:09:52.407Z,100107.13
2022-11-14T17:12:24.543Z,100114.66
2022-11-14T17:14:54.581Z,100109.94
2022-11-14T17:17:24.092Z,100112.16
2022-11-14T17:19:53.545Z,100113.56
2022-11-14T17:22:23.046Z,100109.31
2022-11-14T17:24:52.495Z,100124.16
2022-11-14T17:27:24.606Z,100116.84
2022-11-14T17:29:54.370Z,100121.56
2022-11-14T17:32:23.825Z,100115.22
2022-11-14T17:34:53.334Z,100116.66
2022-11-14T17:37:22.800Z,100110.34
2022-11-14T17:39:52.275Z,100118.72
2022-11-14T17:42:24.350Z,100121.75
2022-11-14T17:44:53.817Z,100122.38
2022-11-14T17:47:23.296Z,100125.03
2022-11-14T17:49:52.844Z,100134.19
2022-11-14T17:52:25.207Z,100130.13
2022-11-14T17:54:54.684Z,100125.22
2022-11-14T17:57:26.736Z,100132.97
2022-11-14T17:59:56.275Z,100130.53
2022-11-14T18:02:25.781Z,100128.09
2022-11-14T18:04:55.274Z,100127.09
2022-11-14T18:07:24.799Z,100132.56
2022-11-14T18:09:54.368Z,100127.47
2022-11-14T18:12:26.506Z,100138.66
2022-11-14T18:14:55.977Z,100141.50
2022-11-14T18:17:25.517Z,100140.06
2022-11-14T18:19:56.199Z,100138.25
2022-11-14T18:22:25.693Z,100143.94
2022-11-14T18:24:55.225Z,100139.25
2022-11-14T18:27:27.282Z,100134.78
2022-11-14T18:30:07.942Z,100137.84
2022-11-14T18:32:43.059Z,100142.09
2022-11-14T18:35:12.744Z,100141.50
2022-11-14T18:37:42.187Z,100145.56
2022-11-14T18:40:16.691Z,100145.78
2022-11-14T18:42:49.048Z,100148.84
2022-11-14T18:45:18.670Z,100153.50
2022-11-14T18:47:48.124Z,100150.03
2022-11-14T18:50:17.663Z,100148.81
2022-11-14T18:52:47.136Z,100151.69
2022-11-14T18:55:16.821Z,100154.94
2022-11-14T18:57:48.838Z,100154.09
2022-11-14T19:00:19.027Z,100154.53
2022-11-14T19:02:52.239Z,100158.22
2022-11-14T19:05:21.958Z,100166.34
2022-11-14T19:07:51.430Z,100158.59
2022-11-14T19:10:21.112Z,100149.84
2022-11-14T19:12:53.144Z,100150.88
2022-11-14T19:15:22.638Z,100159.41
2022-11-14T19:17:52.103Z,100155.97
2022-11-14T19:20:21.735Z,100149.63
2022-11-14T19:22:51.424Z,100155.34
2022-11-14T19:25:20.983Z,100160.84
2022-11-14T19:27:55.238Z,100153.75
2022-11-14T19:30:24.786Z,100165.13
2022-11-14T19:32:54.401Z,100158.22
2022-11-14T19:35:23.914Z,100157.59
2022-11-14T19:37:53.356Z,100156.78
2022-11-14T19:40:22.796Z,100153.13
2022-11-14T19:43:01.909Z,100154.97
2022-11-14T19:45:31.422Z,100160.06
2022-11-14T19:48:00.864Z,100163.69
2022-11-14T19:50:30.304Z,100156.19
2022-11-14T19:53:00.028Z,100159.63
2022-11-14T19:55:29.505Z,100168.59
2022-11-14T19:58:01.634Z,100166.53
2022-11-14T20:00:31.931Z,100167.16
2022-11-14T20:03:01.385Z,100167.16
2022-11-14T20:05:30.831Z,100162.69
2022-11-14T20:08:00.305Z,100164.13
2022-11-14T20:10:29.747Z,100160.84
2022-11-14T20:13:01.804Z,100154.13
2022-11-14T20:15:32.284Z,100161.25
2022-11-14T20:18:01.740Z,100160.06
2022-11-14T20:20:31.167Z,100167.97
2022-11-14T20:23:00.647Z,100165.75
2022-11-14T20:25:30.105Z,100160.03
2022-11-14T20:28:02.332Z,100171.44
2022-11-14T20:30:31.806Z,100163.31
2022-11-14T20:33:01.290Z,100172.84
2022-11-14T20:35:30.802Z,100176.31
2022-11-14T20:38:04.262Z,100166.13
2022-11-14T20:40:34.251Z,100168.78
2022-11-14T20:43:07.245Z,100173.66
2022-11-14T20:45:36.723Z,100172.66
2022-11-14T20:48:06.546Z,100165.75
2022-11-14T20:50:36.031Z,100165.53
2022-11-14T20:53:05.527Z,100163.09
2022-11-14T20:55:34.976Z,100159.66
2022-11-14T20:58:07.045Z,100169.00
2022-11-14T21:00:36.540Z,100164.69
2022-11-14T21:03:06.027Z,100160.66
2022-11-14T21:05:35.453Z,100164.31
2022-11-14T21:08:04.892Z,100161.88
2022-11-14T21:10:50.748Z,100170.63
2022-11-14T21:13:39.234Z,100176.94
2022-11-14T21:16:10.152Z,100177.34
2022-11-14T21:18:45.178Z,100178.56
2022-11-14T21:21:18.535Z,100180.59
2022-11-14T21:23:48.243Z,100177.53
2022-11-14T21:26:18.502Z,100173.47
2022-11-14T21:28:51.739Z,100182.00
2022-11-14T21:31:22.581Z,100186.91
2022-11-14T21:33:52.763Z,100178.34
2022-11-14T21:36:43.810Z,100186.31
2022-11-14T21:39:14.961Z,100188.34
2022-11-14T21:41:45.295Z,100179.97
2022-11-14T21:44:18.040Z,100166.50
2022-11-14T21:46:49.582Z,100172.41
2022-11-14T21:49:19.234Z,100167.16
2022-11-14T21:51:48.937Z,100171.81
2022-11-14T21:54:18.489Z,100176.31
2022-11-14T21:56:47.932Z,100168.38
2022-11-14T21:59:23.863Z,100173.03
2022-11-14T22:02:06.088Z,100162.88
2022-11-14T22:04:35.802Z,100167.56
2022-11-14T22:07:07.595Z,100159.41
2022-11-14T22:09:42.592Z,100164.53
2022-11-14T22:12:14.534Z,100151.31
2022-11-14T22:14:46.579Z,100187.72
2022-11-14T22:17:16.020Z,100172.66
2022-11-14T22:19:45.487Z,100161.03
2022-11-14T22:22:14.960Z,100164.72
2022-11-14T22:24:44.422Z,100168.00
2022-11-14T22:27:13.895Z,100167.16
2022-11-14T22:29:45.948Z,100171.66
2022-11-14T22:32:15.428Z,100161.47
2022-11-14T22:34:44.886Z,100167.56
2022-11-14T22:37:14.345Z,100159.38
2022-11-14T22:39:43.804Z,100165.69
2022-11-14T22:42:13.436Z,100162.28
2022-11-14T22:44:42.933Z,100156.09
2022-11-14T22:47:15.002Z,100167.13
2022-11-14T22:49:44.442Z,100168.97
2022-11-14T22:52:13.871Z,100170.16
2022-11-14T22:54:43.339Z,100155.53
2022-11-14T22:57:12.816Z,100168.16
2022-11-14T22:59:42.273Z,100159.19
2022-11-14T23:02:11.734Z,100147.16
2022-11-14T23:04:43.807Z,100158.94
2022-11-14T23:07:13.354Z,100146.50
2022-11-14T23:09:43.710Z,100155.47
2022-11-14T23:12:13.437Z,100149.38
2022-11-14T23:14:42.895Z,100149.03
2022-11-14T23:17:12.402Z,100150.25
2022-11-14T23:19:44.448Z,100150.59
2022-11-14T23:22:13.929Z,100146.72
2022-11-14T23:24:43.393Z,100151.22
2022-11-14T23:27:12.854Z,100146.16
2022-11-14T23:29:42.302Z,100153.72
2022-11-14T23:32:11.754Z,100154.31
2022-11-14T23:34:43.805Z,100157.78
2022-11-14T23:37:13.284Z,100160.44
2022-11-14T23:39:42.785Z,100165.50
2022-11-14T23:42:12.318Z,100166.31
2022-11-14T23:44:41.912Z,100165.09
2022-11-14T23:47:11.364Z,100158.19
2022-11-14T23:49:40.842Z,100156.59
2022-11-14T23:52:12.845Z,100154.53
2022-11-14T23:54:42.328Z,100155.34
2022-11-14T23:57:11.869Z,100147.00
2022-11-14T23:59:41.322Z,100144.38
